Ausable Chasm, New York
Current Conditions -  °F | °C
As of 11:53 AM on Monday 22 Dec 2014 (Local Time) from KPBG Reporting Station
Haze Haze  
Wind Chill: 21°   Ceiling: 500
Heat Index: 21°   Visibility: 2mi
Dew Point: 20°   Wind: 3mph
Humidity: 96%   Direction: 350°N
Pressure: 30.36"   Gusts: NA
Location:  44.5125°N, 73.5235°W
Report Text: KPBG 221653Z AUTO 35003KT 2SM BR OVC005 M06/M07 A3036 RMK AO2 SLP287 T10611067
Loading
Personal Weather Stations






























Interactive Weather Map New forecast layout! Learn more

10-Day Weather Forecast

Advertisements
Track Severe Weather on mobile